Weather Data

Pearl Creek Farm: 8878 N Farm Road 75, Walnut Grove MO 65770

<== Previous Day (Wednesday 06 Jun 2018) | Next Day (Friday 08 Jun 2018) ==>

Summary Precipitation Data For Thursday 07 June 2018

ElementValueUnits
Precipitation0"
Notes(none)
SourcePearl Creek Farm

Summary Temperature Data For Thursday 07 June 2018

ElementValueUnits
High Temperature90 oF
Low Temperature69 oF
Average Temperature81 oF
High Humidity84 %
Low Humidity42 %
Average Humidity59 %
SourceSpringfield-Branson National Airport (SGF)

Detail Temperature Data For Thursday 07 June 2018

Date / TimeTemp (F)RH (%)Dew Pt (F)Report Date / TimeSource
2018-06-07 00:52:00 74 71 64.0 2019-02-02 11:24:24.260017 Springfield-Branson National Airport (SGF)
2018-06-07 01:52:00 73 74 64.0 2019-02-02 11:24:24.260017 Springfield-Branson National Airport (SGF)
2018-06-07 02:52:00 72 76 64.0 2019-02-02 11:24:24.260017 Springfield-Branson National Airport (SGF)
2018-06-07 03:52:00 72 79 65.0 2019-02-02 11:24:24.260017 Springfield-Branson National Airport (SGF)
2018-06-07 04:52:00 69 84 64.0 2019-02-02 11:24:24.260017 Springfield-Branson National Airport (SGF)
2018-06-07 05:52:00 72 79 65.0 2019-02-02 11:24:24.260017 Springfield-Branson National Airport (SGF)
2018-06-07 06:52:00 76 72 66.0 2019-02-02 11:24:24.260017 Springfield-Branson National Airport (SGF)
2018-06-07 07:52:00 79 65 66.0 2019-02-02 11:24:24.260017 Springfield-Branson National Airport (SGF)
2018-06-07 08:52:00 81 61 66.0 2019-02-02 11:24:24.260017 Springfield-Branson National Airport (SGF)
2018-06-07 09:52:00 86 48 64.0 2019-02-02 11:24:24.260017 Springfield-Branson National Airport (SGF)
2018-06-07 10:52:00 89 45 65.0 2019-02-02 11:24:24.260017 Springfield-Branson National Airport (SGF)
2018-06-07 11:52:00 89 45 65.0 2019-02-02 11:24:24.260017 Springfield-Branson National Airport (SGF)
2018-06-07 12:52:00 88 45 64.0 2019-02-02 11:24:24.260017 Springfield-Branson National Airport (SGF)
2018-06-07 13:52:00 88 43 63.0 2019-02-02 11:24:24.260017 Springfield-Branson National Airport (SGF)
2018-06-07 14:52:00 89 42 63.0 2019-02-02 11:24:24.260017 Springfield-Branson National Airport (SGF)
2018-06-07 15:52:00 90 42 64.0 2019-02-02 11:24:24.260017 Springfield-Branson National Airport (SGF)
2018-06-07 16:52:00 89 43 64.0 2019-02-02 11:24:24.260017 Springfield-Branson National Airport (SGF)
2018-06-07 17:52:00 87 48 65.0 2019-02-02 11:24:24.260017 Springfield-Branson National Airport (SGF)
2018-06-07 18:52:00 84 51 64.0 2019-02-02 11:24:24.260017 Springfield-Branson National Airport (SGF)
2018-06-07 19:52:00 81 58 65.0 2019-02-02 11:24:24.260017 Springfield-Branson National Airport (SGF)
2018-06-07 20:52:00 82 56 65.0 2019-02-02 11:24:24.260017 Springfield-Branson National Airport (SGF)
2018-06-07 21:52:00 78 62 64.0 2019-02-02 11:24:24.260017 Springfield-Branson National Airport (SGF)
2018-06-07 22:52:00 76 67 64.0 2019-02-02 11:24:24.260017 Springfield-Branson National Airport (SGF)
2018-06-07 23:52:00 76 67 64.0 2019-02-02 11:24:24.260017 Springfield-Branson National Airport (SGF)

A total of 24 rows are displayed.